sensor_id;sensor_type;location;lat;lon;timestamp;temperature;humidity
24452;DHT22;13350;50.984;5.822;2023-07-20T00:00:07;16.60;99.90
24452;DHT22;13350;50.984;5.822;2023-07-20T00:02:34;16.60;99.90
24452;DHT22;13350;50.984;5.822;2023-07-20T00:05:03;16.60;99.90
24452;DHT22;13350;50.984;5.822;2023-07-20T00:07:30;16.50;99.90
24452;DHT22;13350;50.984;5.822;2023-07-20T00:09:56;16.40;99.90
24452;DHT22;13350;50.984;5.822;2023-07-20T00:12:24;16.20;99.90
24452;DHT22;13350;50.984;5.822;2023-07-20T00:14:51;16.10;99.90
24452;DHT22;13350;50.984;5.822;2023-07-20T00:17:19;16.00;99.90
24452;DHT22;13350;50.984;5.822;2023-07-20T00:19:46;15.90;99.90
24452;DHT22;13350;50.984;5.822;2023-07-20T00:22:14;15.80;99.90
24452;DHT22;13350;50.984;5.822;2023-07-20T00:24:41;15.80;99.90
24452;DHT22;13350;50.984;5.822;2023-07-20T00:27:08;15.70;99.90
24452;DHT22;13350;50.984;5.822;2023-07-20T00:29:35;15.80;99.90
24452;DHT22;13350;50.984;5.822;2023-07-20T00:32:02;15.80;99.90
24452;DHT22;13350;50.984;5.822;2023-07-20T00:34:31;15.80;99.90
24452;DHT22;13350;50.984;5.822;2023-07-20T00:36:58;15.80;99.90
24452;DHT22;13350;50.984;5.822;2023-07-20T00:39:27;15.80;99.90
24452;DHT22;13350;50.984;5.822;2023-07-20T00:41:54;15.70;99.90
24452;DHT22;13350;50.984;5.822;2023-07-20T00:44:21;15.80;99.90
24452;DHT22;13350;50.984;5.822;2023-07-20T00:46:48;15.70;99.90
24452;DHT22;13350;50.984;5.822;2023-07-20T00:49:15;15.80;99.90
24452;DHT22;13350;50.984;5.822;2023-07-20T00:51:46;15.80;99.90
24452;DHT22;13350;50.984;5.822;2023-07-20T00:54:14;15.90;99.90
24452;DHT22;13350;50.984;5.822;2023-07-20T00:56:43;15.90;99.90
24452;DHT22;13350;50.984;5.822;2023-07-20T00:59:11;15.90;99.90
24452;DHT22;13350;50.984;5.822;2023-07-20T01:01:38;15.90;99.90
24452;DHT22;13350;50.984;5.822;2023-07-20T01:04:05;15.90;99.90
24452;DHT22;13350;50.984;5.822;2023-07-20T01:06:34;15.90;99.90
24452;DHT22;13350;50.984;5.822;2023-07-20T01:09:05;15.80;99.90
24452;DHT22;13350;50.984;5.822;2023-07-20T01:11:36;15.80;99.90
24452;DHT22;13350;50.984;5.822;2023-07-20T01:14:06;15.80;99.90
24452;DHT22;13350;50.984;5.822;2023-07-20T01:16:33;15.80;99.90
24452;DHT22;13350;50.984;5.822;2023-07-20T01:19:00;15.80;99.90
24452;DHT22;13350;50.984;5.822;2023-07-20T01:21:30;15.90;99.90
24452;DHT22;13350;50.984;5.822;2023-07-20T01:29:54;16.00;99.90
24452;DHT22;13350;50.984;5.822;2023-07-20T01:32:26;16.00;99.90
24452;DHT22;13350;50.984;5.822;2023-07-20T01:34:54;15.90;99.90
24452;DHT22;13350;50.984;5.822;2023-07-20T01:37:21;15.90;99.90
24452;DHT22;13350;50.984;5.822;2023-07-20T01:39:53;15.90;99.90
24452;DHT22;13350;50.984;5.822;2023-07-20T01:42:21;15.90;99.90
24452;DHT22;13350;50.984;5.822;2023-07-20T01:44:50;15.80;99.90
24452;DHT22;13350;50.984;5.822;2023-07-20T01:47:17;15.70;99.90
24452;DHT22;13350;50.984;5.822;2023-07-20T01:49:45;15.80;99.90
24452;DHT22;13350;50.984;5.822;2023-07-20T01:52:12;15.80;99.90
24452;DHT22;13350;50.984;5.822;2023-07-20T01:54:40;15.90;99.90
24452;DHT22;13350;50.984;5.822;2023-07-20T01:57:07;15.90;99.90
24452;DHT22;13350;50.984;5.822;2023-07-20T01:59:34;15.90;99.90
24452;DHT22;13350;50.984;5.822;2023-07-20T02:02:01;16.00;99.90
24452;DHT22;13350;50.984;5.822;2023-07-20T02:04:28;15.90;99.90
24452;DHT22;13350;50.984;5.822;2023-07-20T02:06:57;15.90;99.90
24452;DHT22;13350;50.984;5.822;2023-07-20T02:09:24;15.90;99.90
24452;DHT22;13350;50.984;5.822;2023-07-20T02:11:50;15.90;99.90
24452;DHT22;13350;50.984;5.822;2023-07-20T02:14:17;15.80;99.90
24452;DHT22;13350;50.984;5.822;2023-07-20T02:16:44;15.80;99.90
24452;DHT22;13350;50.984;5.822;2023-07-20T02:19:14;15.70;99.90
24452;DHT22;13350;50.984;5.822;2023-07-20T02:21:41;15.70;99.90
24452;DHT22;13350;50.984;5.822;2023-07-20T02:24:09;15.60;99.90
24452;DHT22;13350;50.984;5.822;2023-07-20T02:26:36;15.50;99.90
24452;DHT22;13350;50.984;5.822;2023-07-20T02:29:03;15.50;99.90
24452;DHT22;13350;50.984;5.822;2023-07-20T02:31:30;15.40;99.90
24452;DHT22;13350;50.984;5.822;2023-07-20T02:33:57;15.30;99.90
24452;DHT22;13350;50.984;5.822;2023-07-20T02:36:24;15.20;99.90
24452;DHT22;13350;50.984;5.822;2023-07-20T02:38:51;15.20;99.90
24452;DHT22;13350;50.984;5.822;2023-07-20T02:41:20;15.10;99.90
24452;DHT22;13350;50.984;5.822;2023-07-20T02:43:47;15.10;99.90
24452;DHT22;13350;50.984;5.822;2023-07-20T02:46:14;15.00;99.90
24452;DHT22;13350;50.984;5.822;2023-07-20T02:48:41;15.00;99.90
24452;DHT22;13350;50.984;5.822;2023-07-20T02:51:08;15.00;99.90
24452;DHT22;13350;50.984;5.822;2023-07-20T02:53:36;15.00;99.90
24452;DHT22;13350;50.984;5.822;2023-07-20T02:56:04;15.00;99.90
24452;DHT22;13350;50.984;5.822;2023-07-20T02:58:33;15.00;99.90
24452;DHT22;13350;50.984;5.822;2023-07-20T03:01:02;15.10;99.90
24452;DHT22;13350;50.984;5.822;2023-07-20T03:03:29;15.10;99.90
24452;DHT22;13350;50.984;5.822;2023-07-20T03:05:56;15.20;99.90
24452;DHT22;13350;50.984;5.822;2023-07-20T03:08:24;15.30;99.90
24452;DHT22;13350;50.984;5.822;2023-07-20T03:10:51;15.30;99.90
24452;DHT22;13350;50.984;5.822;2023-07-20T03:13:18;15.30;99.90
24452;DHT22;13350;50.984;5.822;2023-07-20T03:15:46;15.30;99.90
24452;DHT22;13350;50.984;5.822;2023-07-20T03:18:13;15.40;99.90
24452;DHT22;13350;50.984;5.822;2023-07-20T03:20:40;15.40;99.90
24452;DHT22;13350;50.984;5.822;2023-07-20T03:23:07;15.30;99.90
24452;DHT22;13350;50.984;5.822;2023-07-20T03:25:34;15.20;99.90
24452;DHT22;13350;50.984;5.822;2023-07-20T03:28:03;15.10;99.90
24452;DHT22;13350;50.984;5.822;2023-07-20T03:30:30;15.20;99.90
24452;DHT22;13350;50.984;5.822;2023-07-20T03:32:58;15.20;99.90
24452;DHT22;13350;50.984;5.822;2023-07-20T03:35:25;15.20;99.90
24452;DHT22;13350;50.984;5.822;2023-07-20T03:37:52;15.30;99.90
24452;DHT22;13350;50.984;5.822;2023-07-20T03:40:20;15.30;99.90
24452;DHT22;13350;50.984;5.822;2023-07-20T03:42:47;15.30;99.90
24452;DHT22;13350;50.984;5.822;2023-07-20T03:45:14;15.30;99.90
24452;DHT22;13350;50.984;5.822;2023-07-20T03:47:43;15.40;99.90
24452;DHT22;13350;50.984;5.822;2023-07-20T03:50:13;15.40;99.90
24452;DHT22;13350;50.984;5.822;2023-07-20T03:52:40;15.40;99.90
24452;DHT22;13350;50.984;5.822;2023-07-20T03:55:08;15.40;99.90
24452;DHT22;13350;50.984;5.822;2023-07-20T03:57:35;15.40;99.90
24452;DHT22;13350;50.984;5.822;2023-07-20T04:00:02;15.40;99.90
24452;DHT22;13350;50.984;5.822;2023-07-20T04:02:29;15.40;99.90
24452;DHT22;13350;50.984;5.822;2023-07-20T04:04:56;15.40;99.90
24452;DHT22;13350;50.984;5.822;2023-07-20T04:07:25;15.40;99.90
24452;DHT22;13350;50.984;5.822;2023-07-20T04:09:52;15.50;99.90
24452;DHT22;13350;50.984;5.822;2023-07-20T04:12:19;15.50;99.90
24452;DHT22;13350;50.984;5.822;2023-07-20T04:14:46;15.40;99.90
24452;DHT22;13350;50.984;5.822;2023-07-20T04:17:13;15.40;99.90
24452;DHT22;13350;50.984;5.822;2023-07-20T04:19:39;15.50;99.90
24452;DHT22;13350;50.984;5.822;2023-07-20T04:22:06;15.50;99.90
24452;DHT22;13350;50.984;5.822;2023-07-20T04:24:35;15.50;99.90
24452;DHT22;13350;50.984;5.822;2023-07-20T04:27:02;15.50;99.90
24452;DHT22;13350;50.984;5.822;2023-07-20T04:29:29;15.50;99.90
24452;DHT22;13350;50.984;5.822;2023-07-20T04:31:57;15.50;99.90
24452;DHT22;13350;50.984;5.822;2023-07-20T04:34:24;15.50;99.90
24452;DHT22;13350;50.984;5.822;2023-07-20T04:36:50;15.50;99.90
24452;DHT22;13350;50.984;5.822;2023-07-20T04:39:18;15.60;99.90
24452;DHT22;13350;50.984;5.822;2023-07-20T04:41:47;15.60;99.90
24452;DHT22;13350;50.984;5.822;2023-07-20T04:44:14;15.60;99.90
24452;DHT22;13350;50.984;5.822;2023-07-20T04:46:41;15.70;99.90
24452;DHT22;13350;50.984;5.822;2023-07-20T04:49:08;15.70;99.90
24452;DHT22;13350;50.984;5.822;2023-07-20T04:51:35;15.60;99.90
24452;DHT22;13350;50.984;5.822;2023-07-20T04:54:02;15.70;99.90
24452;DHT22;13350;50.984;5.822;2023-07-20T04:56:29;15.80;99.90
24452;DHT22;13350;50.984;5.822;2023-07-20T04:58:58;15.80;99.90
24452;DHT22;13350;50.984;5.822;2023-07-20T05:01:24;15.90;99.90
24452;DHT22;13350;50.984;5.822;2023-07-20T05:03:52;16.10;99.90
24452;DHT22;13350;50.984;5.822;2023-07-20T05:06:19;16.10;99.90
24452;DHT22;13350;50.984;5.822;2023-07-20T05:08:46;16.10;99.90
24452;DHT22;13350;50.984;5.822;2023-07-20T05:11:13;16.00;99.90
24452;DHT22;13350;50.984;5.822;2023-07-20T05:13:40;15.90;99.90
24452;DHT22;13350;50.984;5.822;2023-07-20T05:16:08;15.90;99.90
24452;DHT22;13350;50.984;5.822;2023-07-20T05:18:35;16.00;99.90
24452;DHT22;13350;50.984;5.822;2023-07-20T05:21:02;16.00;99.90
24452;DHT22;13350;50.984;5.822;2023-07-20T05:23:29;16.00;99.90
24452;DHT22;13350;50.984;5.822;2023-07-20T05:25:56;16.00;99.90
24452;DHT22;13350;50.984;5.822;2023-07-20T05:28:24;16.00;99.90
24452;DHT22;13350;50.984;5.822;2023-07-20T05:30:52;16.00;99.90
24452;DHT22;13350;50.984;5.822;2023-07-20T05:33:20;16.00;99.90
24452;DHT22;13350;50.984;5.822;2023-07-20T05:35:47;16.10;99.90
24452;DHT22;13350;50.984;5.822;2023-07-20T05:38:14;16.10;99.90
24452;DHT22;13350;50.984;5.822;2023-07-20T05:40:42;16.10;99.90
24452;DHT22;13350;50.984;5.822;2023-07-20T05:43:09;16.10;99.90
24452;DHT22;13350;50.984;5.822;2023-07-20T05:45:36;16.20;99.90
24452;DHT22;13350;50.984;5.822;2023-07-20T05:48:03;16.30;99.90
24452;DHT22;13350;50.984;5.822;2023-07-20T05:50:32;16.30;99.90
24452;DHT22;13350;50.984;5.822;2023-07-20T05:52:59;16.30;99.90
24452;DHT22;13350;50.984;5.822;2023-07-20T05:55:26;16.20;99.90
24452;DHT22;13350;50.984;5.822;2023-07-20T05:57:53;16.10;99.90
24452;DHT22;13350;50.984;5.822;2023-07-20T06:00:21;16.20;99.90
24452;DHT22;13350;50.984;5.822;2023-07-20T06:02:53;16.30;99.90
24452;DHT22;13350;50.984;5.822;2023-07-20T06:05:21;16.50;99.90
24452;DHT22;13350;50.984;5.822;2023-07-20T06:07:50;16.80;99.90
24452;DHT22;13350;50.984;5.822;2023-07-20T06:10:18;16.90;99.90
24452;DHT22;13350;50.984;5.822;2023-07-20T06:12:45;17.10;99.90
24452;DHT22;13350;50.984;5.822;2023-07-20T06:15:24;17.20;99.90
24452;DHT22;13350;50.984;5.822;2023-07-20T06:17:52;17.30;99.90
24452;DHT22;13350;50.984;5.822;2023-07-20T06:20:19;17.40;99.90
24452;DHT22;13350;50.984;5.822;2023-07-20T06:22:45;17.40;99.90
24452;DHT22;13350;50.984;5.822;2023-07-20T06:25:14;17.50;99.90
24452;DHT22;13350;50.984;5.822;2023-07-20T06:27:42;17.90;99.90
24452;DHT22;13350;50.984;5.822;2023-07-20T06:30:09;18.90;99.90
24452;DHT22;13350;50.984;5.822;2023-07-20T06:32:38;20.10;99.90
24452;DHT22;13350;50.984;5.822;2023-07-20T06:35:05;20.70;99.90
24452;DHT22;13350;50.984;5.822;2023-07-20T06:37:32;20.80;99.90
24452;DHT22;13350;50.984;5.822;2023-07-20T06:39:59;20.60;99.90
24452;DHT22;13350;50.984;5.822;2023-07-20T06:42:28;20.70;99.90
24452;DHT22;13350;50.984;5.822;2023-07-20T06:44:55;21.20;99.90
24452;DHT22;13350;50.984;5.822;2023-07-20T06:47:21;21.80;99.90
24452;DHT22;13350;50.984;5.822;2023-07-20T06:49:49;21.60;99.90
24452;DHT22;13350;50.984;5.822;2023-07-20T06:52:16;21.60;99.90
24452;DHT22;13350;50.984;5.822;2023-07-20T06:54:43;21.10;99.90
24452;DHT22;13350;50.984;5.822;2023-07-20T06:57:10;20.60;99.90
24452;DHT22;13350;50.984;5.822;2023-07-20T06:59:38;20.00;99.90
24452;DHT22;13350;50.984;5.822;2023-07-20T07:02:05;19.60;99.90
24452;DHT22;13350;50.984;5.822;2023-07-20T07:04:32;19.40;99.90
24452;DHT22;13350;50.984;5.822;2023-07-20T07:06:59;19.90;99.90
24452;DHT22;13350;50.984;5.822;2023-07-20T07:09:26;21.20;99.90
24452;DHT22;13350;50.984;5.822;2023-07-20T07:11:53;21.50;99.90
24452;DHT22;13350;50.984;5.822;2023-07-20T07:14:20;21.40;99.90
24452;DHT22;13350;50.984;5.822;2023-07-20T07:16:49;21.20;99.90
24452;DHT22;13350;50.984;5.822;2023-07-20T07:19:16;21.30;99.90
24452;DHT22;13350;50.984;5.822;2023-07-20T07:21:43;21.30;99.90
24452;DHT22;13350;50.984;5.822;2023-07-20T07:24:10;20.80;99.90
24452;DHT22;13350;50.984;5.822;2023-07-20T07:26:37;20.70;99.90
24452;DHT22;13350;50.984;5.822;2023-07-20T07:29:04;20.10;99.90
24452;DHT22;13350;50.984;5.822;2023-07-20T07:31:34;19.60;99.90
24452;DHT22;13350;50.984;5.822;2023-07-20T07:34:02;19.70;99.90
24452;DHT22;13350;50.984;5.822;2023-07-20T07:36:30;19.60;99.90
24452;DHT22;13350;50.984;5.822;2023-07-20T07:38:57;19.50;99.90
24452;DHT22;13350;50.984;5.822;2023-07-20T07:41:24;19.70;99.90
24452;DHT22;13350;50.984;5.822;2023-07-20T07:43:51;19.50;99.90
24452;DHT22;13350;50.984;5.822;2023-07-20T07:46:18;19.40;99.90
24452;DHT22;13350;50.984;5.822;2023-07-20T07:48:45;19.40;99.90
24452;DHT22;13350;50.984;5.822;2023-07-20T07:51:14;19.50;99.90
24452;DHT22;13350;50.984;5.822;2023-07-20T07:53:41;19.50;99.90
24452;DHT22;13350;50.984;5.822;2023-07-20T07:56:09;19.80;99.90
24452;DHT22;13350;50.984;5.822;2023-07-20T07:58:36;20.00;99.90
24452;DHT22;13350;50.984;5.822;2023-07-20T08:01:03;20.30;99.90
24452;DHT22;13350;50.984;5.822;2023-07-20T08:03:30;20.10;99.90
24452;DHT22;13350;50.984;5.822;2023-07-20T08:05:57;19.80;99.90
24452;DHT22;13350;50.984;5.822;2023-07-20T08:08:25;19.40;99.90
24452;DHT22;13350;50.984;5.822;2023-07-20T08:10:53;19.20;99.90
24452;DHT22;13350;50.984;5.822;2023-07-20T08:13:20;19.10;99.90
24452;DHT22;13350;50.984;5.822;2023-07-20T08:15:49;19.10;99.90
24452;DHT22;13350;50.984;5.822;2023-07-20T08:18:16;19.30;99.90
24452;DHT22;13350;50.984;5.822;2023-07-20T08:20:43;19.40;99.90
24452;DHT22;13350;50.984;5.822;2023-07-20T08:23:10;19.40;99.90
24452;DHT22;13350;50.984;5.822;2023-07-20T08:25:39;19.80;99.90
24452;DHT22;13350;50.984;5.822;2023-07-20T08:28:09;20.00;99.90
24452;DHT22;13350;50.984;5.822;2023-07-20T08:30:40;19.90;99.90
24452;DHT22;13350;50.984;5.822;2023-07-20T08:33:07;20.00;99.90
24452;DHT22;13350;50.984;5.822;2023-07-20T08:35:34;20.20;99.90
24452;DHT22;13350;50.984;5.822;2023-07-20T08:38:01;19.90;99.90
24452;DHT22;13350;50.984;5.822;2023-07-20T08:40:30;19.90;99.90
24452;DHT22;13350;50.984;5.822;2023-07-20T08:42:58;20.00;99.90
24452;DHT22;13350;50.984;5.822;2023-07-20T08:45:26;20.00;99.90
24452;DHT22;13350;50.984;5.822;2023-07-20T08:47:54;20.20;99.90
24452;DHT22;13350;50.984;5.822;2023-07-20T08:50:22;20.50;99.90
24452;DHT22;13350;50.984;5.822;2023-07-20T08:52:50;22.00;99.90
24452;DHT22;13350;50.984;5.822;2023-07-20T08:55:18;23.40;99.90
24452;DHT22;13350;50.984;5.822;2023-07-20T08:57:45;24.80;99.90
24452;DHT22;13350;50.984;5.822;2023-07-20T09:00:15;26.50;99.90
24452;DHT22;13350;50.984;5.822;2023-07-20T09:02:43;27.00;99.90
24452;DHT22;13350;50.984;5.822;2023-07-20T09:05:12;26.00;99.90
24452;DHT22;13350;50.984;5.822;2023-07-20T09:07:39;24.40;99.90
24452;DHT22;13350;50.984;5.822;2023-07-20T09:10:07;23.40;99.90
24452;DHT22;13350;50.984;5.822;2023-07-20T09:12:34;22.80;99.90
24452;DHT22;13350;50.984;5.822;2023-07-20T09:15:02;22.10;99.90
24452;DHT22;13350;50.984;5.822;2023-07-20T09:17:30;21.80;99.90
24452;DHT22;13350;50.984;5.822;2023-07-20T09:19:57;21.90;99.90
24452;DHT22;13350;50.984;5.822;2023-07-20T09:22:29;22.90;99.90
24452;DHT22;13350;50.984;5.822;2023-07-20T09:24:56;23.30;99.90
24452;DHT22;13350;50.984;5.822;2023-07-20T09:27:29;22.90;99.90
24452;DHT22;13350;50.984;5.822;2023-07-20T09:29:56;23.00;99.90
24452;DHT22;13350;50.984;5.822;2023-07-20T09:32:23;23.90;99.90
24452;DHT22;13350;50.984;5.822;2023-07-20T09:34:51;25.40;99.90
24452;DHT22;13350;50.984;5.822;2023-07-20T09:37:21;25.10;99.90
24452;DHT22;13350;50.984;5.822;2023-07-20T09:39:49;25.40;99.90
24452;DHT22;13350;50.984;5.822;2023-07-20T09:42:18;25.10;99.90
24452;DHT22;13350;50.984;5.822;2023-07-20T09:44:46;24.80;99.90
24452;DHT22;13350;50.984;5.822;2023-07-20T09:47:13;24.40;99.90
24452;DHT22;13350;50.984;5.822;2023-07-20T09:49:48;24.20;99.90
24452;DHT22;13350;50.984;5.822;2023-07-20T09:52:16;24.20;99.90
24452;DHT22;13350;50.984;5.822;2023-07-20T09:54:44;24.10;99.90
24452;DHT22;13350;50.984;5.822;2023-07-20T09:57:11;25.20;99.90
24452;DHT22;13350;50.984;5.822;2023-07-20T09:59:40;23.90;99.90
24452;DHT22;13350;50.984;5.822;2023-07-20T10:02:09;23.10;99.90
24452;DHT22;13350;50.984;5.822;2023-07-20T10:04:38;22.60;99.90
24452;DHT22;13350;50.984;5.822;2023-07-20T10:07:07;23.40;99.90
24452;DHT22;13350;50.984;5.822;2023-07-20T10:09:39;24.80;99.90
24452;DHT22;13350;50.984;5.822;2023-07-20T10:12:06;25.90;99.90
24452;DHT22;13350;50.984;5.822;2023-07-20T10:14:34;26.30;99.90
24452;DHT22;13350;50.984;5.822;2023-07-20T10:17:05;25.70;99.90
24452;DHT22;13350;50.984;5.822;2023-07-20T10:19:33;24.30;99.90
24452;DHT22;13350;50.984;5.822;2023-07-20T10:22:06;23.10;99.90
24452;DHT22;13350;50.984;5.822;2023-07-20T10:24:35;22.70;99.90
24452;DHT22;13350;50.984;5.822;2023-07-20T10:27:04;22.50;99.90
24452;DHT22;13350;50.984;5.822;2023-07-20T10:29:31;22.80;99.90
24452;DHT22;13350;50.984;5.822;2023-07-20T10:31:59;23.90;99.90
24452;DHT22;13350;50.984;5.822;2023-07-20T10:34:26;24.50;99.90
24452;DHT22;13350;50.984;5.822;2023-07-20T10:36:54;24.60;99.90
24452;DHT22;13350;50.984;5.822;2023-07-20T10:39:22;25.00;99.90
24452;DHT22;13350;50.984;5.822;2023-07-20T10:41:49;25.70;99.90
24452;DHT22;13350;50.984;5.822;2023-07-20T10:44:20;26.60;99.90
24452;DHT22;13350;50.984;5.822;2023-07-20T10:46:47;27.40;99.90
24452;DHT22;13350;50.984;5.822;2023-07-20T10:49:14;26.50;99.90
24452;DHT22;13350;50.984;5.822;2023-07-20T10:51:42;26.20;99.90
24452;DHT22;13350;50.984;5.822;2023-07-20T10:54:32;26.90;99.90
24452;DHT22;13350;50.984;5.822;2023-07-20T10:59:46;28.60;99.90
24452;DHT22;13350;50.984;5.822;2023-07-20T11:02:17;27.40;99.90
24452;DHT22;13350;50.984;5.822;2023-07-20T11:04:44;26.80;99.90
24452;DHT22;13350;50.984;5.822;2023-07-20T11:07:15;25.90;99.90
24452;DHT22;13350;50.984;5.822;2023-07-20T11:09:42;27.00;99.90
24452;DHT22;13350;50.984;5.822;2023-07-20T11:12:09;27.10;99.90
24452;DHT22;13350;50.984;5.822;2023-07-20T11:14:40;25.80;99.90
24452;DHT22;13350;50.984;5.822;2023-07-20T11:17:15;24.70;99.90
24452;DHT22;13350;50.984;5.822;2023-07-20T11:19:47;24.00;99.90
24452;DHT22;13350;50.984;5.822;2023-07-20T11:22:15;23.40;99.90
24452;DHT22;13350;50.984;5.822;2023-07-20T11:24:42;22.80;99.90
24452;DHT22;13350;50.984;5.822;2023-07-20T11:27:09;23.30;99.90
24452;DHT22;13350;50.984;5.822;2023-07-20T11:29:37;24.80;99.90
24452;DHT22;13350;50.984;5.822;2023-07-20T11:32:04;26.20;99.90
24452;DHT22;13350;50.984;5.822;2023-07-20T11:34:33;27.00;99.90
24452;DHT22;13350;50.984;5.822;2023-07-20T11:37:00;28.40;99.90
24452;DHT22;13350;50.984;5.822;2023-07-20T11:39:28;28.70;99.90
24452;DHT22;13350;50.984;5.822;2023-07-20T11:41:56;28.50;99.90
24452;DHT22;13350;50.984;5.822;2023-07-20T11:44:23;28.70;99.90
24452;DHT22;13350;50.984;5.822;2023-07-20T11:46:59;28.20;99.90
24452;DHT22;13350;50.984;5.822;2023-07-20T11:49:26;28.70;99.90
24452;DHT22;13350;50.984;5.822;2023-07-20T11:51:55;28.80;99.90
24452;DHT22;13350;50.984;5.822;2023-07-20T11:54:23;29.70;99.90
24452;DHT22;13350;50.984;5.822;2023-07-20T11:56:53;29.40;99.90
24452;DHT22;13350;50.984;5.822;2023-07-20T11:59:20;28.70;99.90
24452;DHT22;13350;50.984;5.822;2023-07-20T12:01:47;28.30;99.90
24452;DHT22;13350;50.984;5.822;2023-07-20T12:04:14;27.60;99.90
24452;DHT22;13350;50.984;5.822;2023-07-20T12:06:41;26.90;99.90
24452;DHT22;13350;50.984;5.822;2023-07-20T12:09:12;27.00;99.90
24452;DHT22;13350;50.984;5.822;2023-07-20T12:11:40;27.50;99.90
24452;DHT22;13350;50.984;5.822;2023-07-20T12:14:07;27.30;99.90
24452;DHT22;13350;50.984;5.822;2023-07-20T12:16:35;26.70;99.90
24452;DHT22;13350;50.984;5.822;2023-07-20T12:19:04;25.70;99.90
24452;DHT22;13350;50.984;5.822;2023-07-20T12:21:31;25.20;99.90
24452;DHT22;13350;50.984;5.822;2023-07-20T12:23:58;25.20;99.90
24452;DHT22;13350;50.984;5.822;2023-07-20T12:26:28;25.20;99.90
24452;DHT22;13350;50.984;5.822;2023-07-20T12:28:55;25.40;99.90
24452;DHT22;13350;50.984;5.822;2023-07-20T12:31:22;25.30;99.90
24452;DHT22;13350;50.984;5.822;2023-07-20T12:33:50;24.80;99.90
24452;DHT22;13350;50.984;5.822;2023-07-20T12:36:17;24.60;99.90
24452;DHT22;13350;50.984;5.822;2023-07-20T12:38:44;24.50;99.90
24452;DHT22;13350;50.984;5.822;2023-07-20T12:41:11;25.20;99.90
24452;DHT22;13350;50.984;5.822;2023-07-20T12:43:41;25.20;99.90
24452;DHT22;13350;50.984;5.822;2023-07-20T12:46:08;25.40;99.90
24452;DHT22;13350;50.984;5.822;2023-07-20T12:48:35;25.20;99.90
24452;DHT22;13350;50.984;5.822;2023-07-20T12:51:03;26.00;99.90
24452;DHT22;13350;50.984;5.822;2023-07-20T12:53:30;27.50;99.90
24452;DHT22;13350;50.984;5.822;2023-07-20T12:55:57;27.30;99.90
24452;DHT22;13350;50.984;5.822;2023-07-20T12:58:24;26.60;99.90
24452;DHT22;13350;50.984;5.822;2023-07-20T13:00:53;26.20;99.90
24452;DHT22;13350;50.984;5.822;2023-07-20T13:03:20;25.70;99.90
24452;DHT22;13350;50.984;5.822;2023-07-20T13:05:47;25.70;99.90
24452;DHT22;13350;50.984;5.822;2023-07-20T13:08:14;25.90;99.90
24452;DHT22;13350;50.984;5.822;2023-07-20T13:10:42;25.40;99.90
24452;DHT22;13350;50.984;5.822;2023-07-20T13:13:10;25.40;99.90
24452;DHT22;13350;50.984;5.822;2023-07-20T13:15:41;25.70;99.90
24452;DHT22;13350;50.984;5.822;2023-07-20T13:18:09;27.30;99.90
24452;DHT22;13350;50.984;5.822;2023-07-20T13:20:36;27.50;99.90
24452;DHT22;13350;50.984;5.822;2023-07-20T13:23:04;27.00;99.90
24452;DHT22;13350;50.984;5.822;2023-07-20T13:25:31;26.50;99.90
24452;DHT22;13350;50.984;5.822;2023-07-20T13:27:58;26.90;99.90
24452;DHT22;13350;50.984;5.822;2023-07-20T13:30:25;28.20;99.90
24452;DHT22;13350;50.984;5.822;2023-07-20T13:32:52;28.30;97.00
24452;DHT22;13350;50.984;5.822;2023-07-20T13:35:20;27.50;96.40
24452;DHT22;13350;50.984;5.822;2023-07-20T13:37:47;26.20;95.90
24452;DHT22;13350;50.984;5.822;2023-07-20T13:40:15;25.60;97.90
24452;DHT22;13350;50.984;5.822;2023-07-20T13:42:44;25.50;99.10
24452;DHT22;13350;50.984;5.822;2023-07-20T13:45:11;25.30;99.90
24452;DHT22;13350;50.984;5.822;2023-07-20T13:47:38;24.80;99.90
24452;DHT22;13350;50.984;5.822;2023-07-20T13:50:06;25.00;99.90
24452;DHT22;13350;50.984;5.822;2023-07-20T13:52:34;24.30;99.90
24452;DHT22;13350;50.984;5.822;2023-07-20T13:55:02;24.00;99.90
24452;DHT22;13350;50.984;5.822;2023-07-20T13:57:30;23.80;99.90
24452;DHT22;13350;50.984;5.822;2023-07-20T13:59:57;23.70;99.90
24452;DHT22;13350;50.984;5.822;2023-07-20T14:02:25;23.70;99.90
24452;DHT22;13350;50.984;5.822;2023-07-20T14:04:52;24.40;99.90
24452;DHT22;13350;50.984;5.822;2023-07-20T14:07:21;24.60;99.90
24452;DHT22;13350;50.984;5.822;2023-07-20T14:09:49;24.70;99.90
24452;DHT22;13350;50.984;5.822;2023-07-20T14:12:16;24.60;99.90
24452;DHT22;13350;50.984;5.822;2023-07-20T14:14:43;25.10;99.90
24452;DHT22;13350;50.984;5.822;2023-07-20T14:17:10;24.80;99.90
24452;DHT22;13350;50.984;5.822;2023-07-20T14:19:38;24.90;99.90
24452;DHT22;13350;50.984;5.822;2023-07-20T14:22:05;24.80;99.90
24452;DHT22;13350;50.984;5.822;2023-07-20T14:24:32;24.30;99.90
24452;DHT22;13350;50.984;5.822;2023-07-20T14:27:01;24.20;99.90
24452;DHT22;13350;50.984;5.822;2023-07-20T14:29:28;24.30;99.90
24452;DHT22;13350;50.984;5.822;2023-07-20T14:31:57;24.70;99.90
24452;DHT22;13350;50.984;5.822;2023-07-20T14:34:24;25.70;99.90
24452;DHT22;13350;50.984;5.822;2023-07-20T14:36:51;27.10;99.90
24452;DHT22;13350;50.984;5.822;2023-07-20T14:39:18;27.20;99.90
24452;DHT22;13350;50.984;5.822;2023-07-20T14:41:45;27.30;99.90
24452;DHT22;13350;50.984;5.822;2023-07-20T14:44:13;28.10;99.90
24452;DHT22;13350;50.984;5.822;2023-07-20T14:46:40;28.10;99.40
24452;DHT22;13350;50.984;5.822;2023-07-20T14:49:08;28.40;98.60
24452;DHT22;13350;50.984;5.822;2023-07-20T14:51:36;28.30;97.80
24452;DHT22;13350;50.984;5.822;2023-07-20T14:54:08;27.70;99.00
24452;DHT22;13350;50.984;5.822;2023-07-20T14:56:37;27.20;99.10
24452;DHT22;13350;50.984;5.822;2023-07-20T14:59:04;26.80;99.00
24452;DHT22;13350;50.984;5.822;2023-07-20T15:01:32;26.50;99.60
24452;DHT22;13350;50.984;5.822;2023-07-20T15:03:59;25.90;99.90
24452;DHT22;13350;50.984;5.822;2023-07-20T15:06:26;25.80;99.90
24452;DHT22;13350;50.984;5.822;2023-07-20T15:08:55;25.50;99.90
24452;DHT22;13350;50.984;5.822;2023-07-20T15:11:22;25.30;99.90
24452;DHT22;13350;50.984;5.822;2023-07-20T15:13:49;25.00;99.90
24452;DHT22;13350;50.984;5.822;2023-07-20T15:16:17;25.30;99.90
24452;DHT22;13350;50.984;5.822;2023-07-20T15:18:45;25.00;99.90
24452;DHT22;13350;50.984;5.822;2023-07-20T15:21:12;24.90;99.90
24452;DHT22;13350;50.984;5.822;2023-07-20T15:23:40;24.70;99.90
24452;DHT22;13350;50.984;5.822;2023-07-20T15:26:07;24.70;99.90
24452;DHT22;13350;50.984;5.822;2023-07-20T15:28:34;24.60;99.90
24452;DHT22;13350;50.984;5.822;2023-07-20T15:31:01;25.00;99.90
24452;DHT22;13350;50.984;5.822;2023-07-20T15:33:28;25.50;99.90
24452;DHT22;13350;50.984;5.822;2023-07-20T15:35:57;25.30;99.90
24452;DHT22;13350;50.984;5.822;2023-07-20T15:38:24;25.00;99.90
24452;DHT22;13350;50.984;5.822;2023-07-20T15:40:51;24.80;99.90